Time;durP1;ratioP1;P1;durP2;ratioP2;P2;SDS_P1;SDS_P2;PMS_P1;PMS_P2;Temp;Humidity;BMP_temperature;BMP_pressure;BME280_temperature;BME280_humidity;BME280_pressure;Samples;Min_cycle;Max_cycle;Signal;HPM_P1;HPM_P2
2023/10/15 00:00:12;;;;;;;12.70;8.43;;;;;;;16.23;66.85;99210.44;5053069;28;20619;-64
2023/10/15 00:02:41;;;;;;;10.73;8.43;;;;;;;16.24;66.75;99207.50;5052045;28;20182;-65
2023/10/15 00:05:11;;;;;;;15.03;9.70;;;;;;;16.24;66.81;99198.66;5052812;28;20302;-65
2023/10/15 00:07:37;;;;;;;11.63;8.63;;;;;;;16.23;67.12;99192.50;5052445;28;20215;-65
2023/10/15 00:10:10;;;;;;;11.70;8.93;;;;;;;16.20;67.58;99192.97;5052289;28;20611;-66
2023/10/15 00:12:37;;;;;;;13.50;9.37;;;;;;;16.18;67.62;99188.91;5052406;28;20219;-66
2023/10/15 00:15:07;;;;;;;19.90;9.10;;;;;;;16.18;67.76;99188.91;5052190;28;20387;-65
2023/10/15 00:17:34;;;;;;;12.47;8.93;;;;;;;16.16;67.65;99188.34;5052187;28;20254;-65
2023/10/15 00:20:02;;;;;;;14.63;9.63;;;;;;;16.14;67.36;99183.22;5052177;28;20204;-65
2023/10/15 00:22:31;;;;;;;14.83;9.20;;;;;;;16.10;67.60;99181.25;5052058;28;20687;-65
2023/10/15 00:24:57;;;;;;;12.87;8.53;;;;;;;15.95;67.24;99171.03;5051955;28;20688;-65
2023/10/15 00:27:24;;;;;;;17.60;8.90;;;;;;;15.99;67.86;99182.91;5050105;28;20720;-65
2023/10/15 00:29:51;;;;;;;13.77;9.50;;;;;;;15.98;67.93;99174.06;5052199;28;20196;-65
2023/10/15 00:32:18;;;;;;;18.50;9.73;;;;;;;16.00;67.89;99179.19;5051917;28;20555;-66
2023/10/15 00:34:49;;;;;;;24.87;9.47;;;;;;;15.99;67.89;99174.88;5052264;28;20197;-66
2023/10/15 00:37:15;;;;;;;19.60;10.00;;;;;;;15.98;68.07;99176.72;5051769;28;20186;-65
2023/10/15 00:39:44;;;;;;;15.20;9.90;;;;;;;15.97;68.23;99170.81;5052134;28;20189;-65
2023/10/15 00:42:11;;;;;;;22.23;9.73;;;;;;;15.98;68.38;99174.06;5051711;28;20592;-65
2023/10/15 00:44:37;;;;;;;15.33;9.70;;;;;;;15.98;68.34;99171.38;5051819;28;20242;-66
2023/10/15 00:47:14;;;;;;;15.37;9.67;;;;;;;15.96;68.98;99171.88;5051995;28;20197;-65
2023/10/15 00:49:41;;;;;;;20.73;10.27;;;;;;;15.89;68.92;99172.81;5052066;28;20211;-65
2023/10/15 00:52:09;;;;;;;13.23;9.20;;;;;;;15.83;69.38;99180.97;5051957;28;20242;-65
2023/10/15 00:54:38;;;;;;;12.57;9.20;;;;;;;15.80;69.38;99171.56;5051588;28;20629;-65
2023/10/15 00:57:25;;;;;;;15.97;9.50;;;;;;;15.75;68.83;99179.50;5051592;28;20196;-65
2023/10/15 00:59:54;;;;;;;16.43;9.60;;;;;;;15.75;68.97;99171.47;5051652;28;20192;-64
2023/10/15 01:02:23;;;;;;;12.30;9.67;;;;;;;15.70;68.58;99171.38;5051556;28;20688;-65
2023/10/15 01:04:57;;;;;;;15.80;9.23;;;;;;;15.68;68.95;99176.13;5051561;28;20246;-65
2023/10/15 01:07:33;;;;;;;13.77;9.03;;;;;;;15.62;69.12;99162.88;5051783;28;20212;-65
2023/10/15 01:10:01;;;;;;;15.70;9.27;;;;;;;15.59;69.46;99161.47;5051419;28;20568;-65
2023/10/15 01:12:32;;;;;;;12.97;9.00;;;;;;;15.61;69.61;99164.72;5051599;28;20254;-64
2023/10/15 01:14:59;;;;;;;16.63;10.63;;;;;;;15.55;69.16;99163.00;5051501;28;20543;-64
2023/10/15 01:17:36;;;;;;;16.43;9.87;;;;;;;15.49;68.72;99161.25;5051654;28;20200;-65
2023/10/15 01:20:07;;;;;;;14.50;9.17;;;;;;;15.41;68.62;99161.59;5051819;28;20188;-65
2023/10/15 01:22:35;;;;;;;18.23;10.93;;;;;;;15.37;69.29;99159.66;5051373;28;20181;-65
2023/10/15 01:25:17;;;;;;;20.73;9.93;;;;;;;15.38;69.02;99158.59;5051281;28;20192;-64
2023/10/15 01:27:45;;;;;;;15.77;10.47;;;;;;;15.39;69.24;99153.03;5051404;28;20274;-63
2023/10/15 01:30:17;;;;;;;14.90;10.20;;;;;;;15.41;68.63;99144.75;5051150;28;20193;-64
2023/10/15 01:32:44;;;;;;;16.60;9.20;;;;;;;15.40;68.82;99149.28;5051380;28;20188;-64
2023/10/15 01:35:14;;;;;;;10.37;9.43;;;;;;;15.31;68.75;99150.66;5051519;28;20192;-65
2023/10/15 01:37:45;;;;;;;12.57;9.13;;;;;;;15.26;69.14;99155.91;5051407;28;20314;-65
2023/10/15 01:40:30;;;;;;;12.37;8.67;;;;;;;15.20;69.50;99151.47;5054370;28;20208;-65
2023/10/15 01:42:58;;;;;;;9.47;8.60;;;;;;;15.24;68.89;99155.31;5055286;28;20296;-65
2023/10/15 01:45:31;;;;;;;16.37;8.07;;;;;;;15.24;69.04;99160.66;5055054;28;20250;-65
2023/10/15 01:48:05;;;;;;;11.03;7.93;;;;;;;15.29;68.46;99159.97;5065286;28;20208;-65
2023/10/15 01:50:41;;;;;;;11.30;8.50;;;;;;;15.30;68.65;99154.41;5075302;28;20184;-64
2023/10/15 01:53:08;;;;;;;12.40;7.67;;;;;;;15.29;68.71;99159.97;5075122;28;20678;-64
2023/10/15 01:55:36;;;;;;;9.17;6.97;;;;;;;15.23;68.36;99164.41;5074945;28;20253;-64
2023/10/15 01:58:04;;;;;;;11.00;7.13;;;;;;;15.12;68.95;99157.19;5075274;28;20227;-64
2023/10/15 02:00:43;;;;;;;10.17;7.70;;;;;;;15.08;69.90;99156.03;5075045;28;20202;-64
2023/10/15 02:03:10;;;;;;;9.33;6.17;;;;;;;15.05;69.64;99150.34;5075133;28;20190;-64
2023/10/15 02:05:42;;;;;;;15.40;6.57;;;;;;;15.07;69.63;99159.75;5074454;28;20778;-64
2023/10/15 02:08:08;;;;;;;8.63;6.37;;;;;;;15.06;69.18;99162.66;5075011;28;20250;-64
2023/10/15 02:10:39;;;;;;;7.90;5.50;;;;;;;15.09;69.22;99163.03;5074892;28;20196;-64
2023/10/15 02:13:08;;;;;;;9.37;5.83;;;;;;;15.11;69.41;99160.91;5075147;28;20194;-63
2023/10/15 02:15:38;;;;;;;9.00;6.27;;;;;;;15.09;69.33;99159.53;5074795;28;20188;-64
2023/10/15 02:18:07;;;;;;;7.23;5.90;;;;;;;15.13;68.90;99158.00;5074555;28;20667;-65
2023/10/15 02:20:44;;;;;;;7.60;6.40;;;;;;;15.13;68.58;99158.84;5074784;28;20218;-64
2023/10/15 02:23:11;;;;;;;7.40;6.70;;;;;;;15.13;69.12;99164.19;5074633;28;20187;-64
2023/10/15 02:25:46;;;;;;;10.37;6.83;;;;;;;15.13;69.03;99161.50;5074237;28;20253;-64
2023/10/15 02:28:16;;;;;;;17.47;7.07;;;;;;;15.11;69.17;99160.91;5074294;28;20243;-64
2023/10/15 02:30:46;;;;;;;11.90;6.57;;;;;;;15.05;69.48;99156.50;5074847;28;20199;-65
2023/10/15 02:33:16;;;;;;;8.10;6.33;;;;;;;15.02;69.28;99151.63;5074339;28;20204;-64
2023/10/15 02:35:45;;;;;;;9.97;7.13;;;;;;;15.01;68.93;99157.19;5074544;28;20568;-65
2023/10/15 02:38:13;;;;;;;7.83;6.40;;;;;;;15.02;69.19;99146.25;5074307;28;20203;-64
2023/10/15 02:43:24;;;;;;;14.10;7.40;;;;;;;15.07;68.86;99142.91;5073915;28;20280;-64
2023/10/15 02:45:51;;;;;;;7.70;7.00;;;;;;;15.07;68.48;99138.34;5073908;28;20198;-64
2023/10/15 02:48:21;;;;;;;13.70;6.97;;;;;;;15.04;68.94;99136.13;5061659;28;20293;-64
2023/10/15 02:50:58;;;;;;;10.07;7.37;;;;;;;15.06;68.55;99136.72;5053384;28;20189;-64
2023/10/15 02:53:27;;;;;;;10.93;6.73;;;;;;;14.93;68.63;99115.56;5054301;28;20220;-64
2023/10/15 02:55:58;;;;;;;9.63;6.83;;;;;;;15.06;69.00;99131.38;5053984;28;20192;-64
2023/10/15 02:58:31;;;;;;;8.37;7.07;;;;;;;15.01;68.51;99123.25;5054149;28;20193;-64
2023/10/15 03:01:06;;;;;;;16.13;7.33;;;;;;;15.03;68.77;99125.69;5054172;28;20188;-64
2023/10/15 03:03:34;;;;;;;7.60;6.57;;;;;;;15.01;68.41;99123.25;5053864;28;20674;-64
2023/10/15 03:06:02;;;;;;;10.47;6.97;;;;;;;15.05;68.93;99135.09;5053920;28;20232;-64
2023/10/15 03:08:32;;;;;;;9.37;7.17;;;;;;;15.04;69.08;99130.00;5053518;28;20695;-64
2023/10/15 03:11:12;;;;;;;9.70;7.40;;;;;;;15.00;69.04;99126.94;5053751;28;20209;-64
2023/10/15 03:13:49;;;;;;;15.10;6.87;;;;;;;14.99;69.51;99119.97;5053568;28;20184;-64
2023/10/15 03:16:18;;;;;;;12.47;7.33;;;;;;;14.98;69.54;99129.06;5053753;28;20216;-64
2023/10/15 03:18:48;;;;;;;14.97;7.27;;;;;;;14.96;69.97;99120.44;5053394;28;20604;-64
2023/10/15 03:21:20;;;;;;;11.50;6.57;;;;;;;14.95;70.21;99124.16;5053236;28;20668;-64
2023/10/15 03:23:49;;;;;;;12.40;6.80;;;;;;;14.96;69.79;99125.00;5053614;28;20191;-64
2023/10/15 03:26:21;;;;;;;13.53;6.87;;;;;;;14.93;69.72;99120.09;5053511;28;20192;-63
2023/10/15 03:28:51;;;;;;;11.63;6.67;;;;;;;14.87;69.74;99121.03;5053340;28;20303;-64
2023/10/15 03:31:25;;;;;;;17.27;7.27;;;;;;;14.83;70.13;99115.31;5053144;28;20189;-64
2023/10/15 03:34:16;;;;;;;15.37;7.70;;;;;;;14.82;70.43;99121.72;5053725;28;20191;-65
2023/10/15 03:36:51;;;;;;;8.60;7.67;;;;;;;14.85;70.54;99113.25;5053304;28;20279;-65
2023/10/15 03:39:26;;;;;;;8.30;7.50;;;;;;;14.84;70.80;99116.97;5053007;28;20212;-65
2023/10/15 03:42:09;;;;;;;10.27;7.33;;;;;;;14.85;70.72;99113.25;5053366;28;20193;-65
2023/10/15 03:44:36;;;;;;;20.43;7.43;;;;;;;14.81;71.43;99111.25;5052830;28;20189;-65
2023/10/15 03:47:04;;;;;;;11.20;7.47;;;;;;;14.71;71.75;99095.78;5054909;28;20235;-65
2023/10/15 03:49:31;;;;;;;12.40;7.00;;;;;;;14.50;72.34;99093.69;5072995;28;20356;-65
2023/10/15 03:51:58;;;;;;;9.57;7.70;;;;;;;14.38;72.76;99106.22;5072845;28;20196;-65
2023/10/15 03:54:25;;;;;;;10.07;6.83;;;;;;;14.30;73.43;99108.41;5072735;28;20196;-65
2023/10/15 03:56:53;;;;;;;17.37;7.73;;;;;;;14.32;73.58;99101.78;5072869;28;20274;-64
2023/10/15 03:59:21;;;;;;;10.37;7.53;;;;;;;14.38;73.22;99106.22;5072805;28;20192;-64
2023/10/15 04:01:48;;;;;;;13.53;8.23;;;;;;;14.43;73.17;99103.69;5072781;28;20245;-64
2023/10/15 04:04:17;;;;;;;12.80;7.57;;;;;;;14.47;73.22;99104.03;5072771;28;20294;-64
2023/10/15 04:06:51;;;;;;;12.77;7.33;;;;;;;14.52;73.34;99113.00;5072483;28;20232;-64
2023/10/15 04:09:22;;;;;;;13.63;7.67;;;;;;;14.52;72.94;99107.66;5072677;28;20214;-64
2023/10/15 04:11:50;;;;;;;12.97;7.90;;;;;;;14.58;73.09;99105.91;5071996;28;20640;-64
2023/10/15 04:14:26;;;;;;;11.33;7.43;;;;;;;14.58;73.07;99101.34;5072619;28;20242;-63
2023/10/15 04:16:57;;;;;;;11.57;6.47;;;;;;;14.52;73.11;99101.47;5072222;28;20234;-65
2023/10/15 04:19:26;;;;;;;10.10;7.67;;;;;;;14.53;72.84;99098.56;5072259;28;20188;-65
2023/10/15 04:21:59;;;;;;;21.17;7.83;;;;;;;14.49;72.88;99102.75;5072527;28;20192;-65
2023/10/15 04:24:36;;;;;;;15.63;7.17;;;;;;;14.50;73.21;99098.22;5072515;28;20188;-67
2023/10/15 04:27:06;;;;;;;10.87;7.37;;;;;;;14.46;73.08;99097.84;5072522;28;20195;-65
2023/10/15 04:29:33;;;;;;;8.50;6.77;;;;;;;14.39;73.29;99091.00;5065305;28;20212;-65
2023/10/15 04:32:04;;;;;;;7.53;6.80;;;;;;;14.32;73.05;99095.63;5051990;28;20292;-65
2023/10/15 04:34:32;;;;;;;9.53;7.00;;;;;;;14.25;73.74;99095.72;5052274;28;20618;-65
2023/10/15 04:37:01;;;;;;;11.30;8.03;;;;;;;14.01;74.64;99087.88;5051856;28;20279;-65
2023/10/15 04:39:28;;;;;;;9.93;8.17;;;;;;;13.95;74.64;99092.25;5052199;28;20219;-65
2023/10/15 04:41:56;;;;;;;9.87;7.37;;;;;;;13.92;74.86;99090.03;5052086;28;20215;-65
2023/10/15 04:44:25;;;;;;;12.47;8.03;;;;;;;13.87;74.94;99091.75;5051798;28;20569;-65
2023/10/15 04:46:55;;;;;;;13.73;7.87;;;;;;;13.88;75.73;99086.19;5052304;28;20193;-65
2023/10/15 04:49:23;;;;;;;13.07;8.37;;;;;;;13.92;75.64;99090.03;5071969;28;20228;-66
2023/10/15 04:51:52;;;;;;;8.30;7.40;;;;;;;13.95;75.80;99084.25;5072146;28;20639;-66
2023/10/15 04:54:23;;;;;;;14.07;7.70;;;;;;;14.02;75.00;99084.97;5072256;28;20210;-65
2023/10/15 04:56:50;;;;;;;14.67;7.87;;;;;;;14.03;75.00;99086.59;5071656;28;20639;-65
2023/10/15 04:59:17;;;;;;;10.93;7.67;;;;;;;14.02;74.90;99078.81;5071858;28;20196;-65
2023/10/15 05:01:45;;;;;;;8.03;7.20;;;;;;;14.16;75.19;99081.03;5072112;28;20246;-65
2023/10/15 05:04:13;;;;;;;13.00;7.17;;;;;;;14.27;74.26;99077.63;5071704;28;20273;-62
2023/10/15 05:06:41;;;;;;;10.20;7.03;;;;;;;14.73;75.48;99079.50;5072238;28;20228;-61
2023/10/15 05:09:09;;;;;;;7.40;6.67;;;;;;;15.10;71.06;99083.56;5067575;28;20219;-63
2023/10/15 05:11:35;;;;;;;10.20;6.32;;;;;;;15.51;74.76;99070.81;5071341;28;20526;-59
2023/10/15 05:14:02;;;;;;;6.00;5.50;;;;;;;16.60;72.33;99072.25;5056565;28;20200;-60
2023/10/15 05:16:29;;;;;;;9.17;6.67;;;;;;;17.52;68.72;99063.38;5056717;28;20204;-60
2023/10/15 05:18:58;;;;;;;11.13;6.57;;;;;;;18.50;64.21;99088.03;5061834;28;20198;-61
2023/10/15 05:21:25;;;;;;;7.87;5.13;;;;;;;19.28;60.66;99091.56;5058550;28;20223;-63
2023/10/15 05:23:53;;;;;;;12.77;5.57;;;;;;;19.97;58.52;99100.19;5060845;28;20187;-63
2023/10/15 05:26:22;;;;;;;6.37;5.20;;;;;;;20.58;55.88;99101.09;5062136;28;20238;-66
2023/10/15 05:28:49;;;;;;;15.13;5.77;;;;;;;21.18;51.18;99111.84;5061660;28;20229;-67
2023/10/15 05:31:16;;;;;;;6.30;5.13;;;;;;;21.58;49.30;99111.75;5062974;28;20192;-63
2023/10/15 05:33:42;;;;;;;12.07;5.03;;;;;;;21.85;47.32;99117.63;5062707;28;20250;-64
2023/10/15 05:36:09;;;;;;;7.30;5.13;;;;;;;22.18;46.95;99112.31;5060402;28;20192;-64
2023/10/15 05:38:36;;;;;;;7.93;5.40;;;;;;;22.25;45.97;99118.19;5061530;28;20192;-63
2023/10/15 05:41:04;;;;;;;11.00;4.87;;;;;;;22.13;45.47;99109.59;5062394;28;20201;-63
2023/10/15 05:43:31;;;;;;;7.07;5.33;;;;;;;21.93;45.63;99109.72;5059527;28;20242;-63
2023/10/15 05:45:57;;;;;;;9.50;6.20;;;;;;;21.71;46.44;99094.94;5062497;28;20245;-63
2023/10/15 05:48:24;;;;;;;14.30;5.87;;;;;;;21.84;46.33;99108.69;5059936;28;20197;-62
2023/10/15 05:50:51;;;;;;;5.70;5.00;;;;;;;21.97;46.31;99110.78;5060592;28;20228;-64
2023/10/15 05:53:18;;;;;;;16.07;5.90;;;;;;;22.37;44.35;99110.53;5059754;28;20189;-63
2023/10/15 05:55:45;;;;;;;9.33;5.47;;;;;;;22.81;43.92;99110.47;5060803;28;20664;-62
2023/10/15 05:58:13;;;;;;;9.23;4.97;;;;;;;23.23;42.90;99103.31;5058660;28;20742;-72
2023/10/15 06:00:40;;;;;;;7.73;5.70;;;;;;;23.33;40.90;99108.66;5055036;28;20555;-72
2023/10/15 06:03:08;;;;;;;13.50;6.17;;;;;;;22.92;41.77;99107.41;5059825;28;20197;-72
2023/10/15 06:05:36;;;;;;;12.03;5.67;;;;;;;22.90;42.43;99097.94;5061334;28;20740;-73
2023/10/15 06:08:04;;;;;;;39.43;8.27;;;;;;;22.77;43.71;99098.59;5059525;28;20189;-71
2023/10/15 06:10:32;;;;;;;11.15;6.30;;;;;;;22.48;42.70;99086.94;5059034;28;20477;-74
2023/10/15 06:13:01;;;;;;;33.53;7.43;;;;;;;22.53;43.90;99090.41;5056789;28;20234;-77
2023/10/15 06:15:29;;;;;;;13.60;5.73;;;;;;;22.33;43.49;99093.25;5058889;28;20201;-72
2023/10/15 06:17:57;;;;;;;6.23;5.63;;;;;;;22.41;43.83;99094.56;5059159;28;20194;-74
2023/10/15 06:20:24;;;;;;;6.47;5.77;;;;;;;22.28;44.09;99101.41;5060500;28;20755;-72
2023/10/15 06:22:55;;;;;;;9.07;5.03;;;;;;;22.02;44.90;99086.44;5060779;28;20194;-71
2023/10/15 06:25:23;;;;;;;11.90;5.43;;;;;;;22.00;45.81;99085.06;5057220;28;20272;-71
2023/10/15 06:27:50;;;;;;;10.30;5.60;;;;;;;22.29;44.80;99092.19;5063160;28;20193;-73
2023/10/15 06:30:17;;;;;;;16.40;5.53;;;;;;;22.35;45.39;99093.78;5064238;28;20269;-72
2023/10/15 06:32:47;;;;;;;7.20;5.63;;;;;;;22.79;44.57;99091.81;5063160;28;20184;-72
2023/10/15 06:35:18;;;;;;;9.90;5.67;;;;;;;22.92;42.93;99091.16;5057549;28;20185;-70
2023/10/15 06:37:45;;;;;;;11.60;5.97;;;;;;;22.89;42.85;99091.72;5053551;28;20191;-74
2023/10/15 06:40:13;;;;;;;10.37;5.03;;;;;;;23.17;42.32;99082.78;5054110;28;20195;-74
2023/10/15 06:42:40;;;;;;;9.87;5.60;;;;;;;23.60;41.66;99087.16;5054184;28;20203;-69
2023/10/15 06:45:08;;;;;;;8.80;5.27;;;;;;;24.01;41.46;99082.06;5054314;28;20200;-72
2023/10/15 06:47:35;;;;;;;8.33;5.73;;;;;;;24.09;39.50;99084.91;5056329;28;20196;-72
2023/10/15 06:50:07;;;;;;;8.60;5.33;;;;;;;23.76;41.75;99077.75;5073340;28;20645;-77
2023/10/15 06:52:37;;;;;;;6.87;5.70;;;;;;;23.50;41.40;99081.88;5060399;28;20673;-76
2023/10/15 06:55:05;;;;;;;15.57;5.90;;;;;;;23.56;41.55;99080.72;5035375;28;20667;-69
2023/10/15 06:57:32;;;;;;;17.23;6.17;;;;;;;23.54;41.77;99076.69;5033751;28;20199;-72
2023/10/15 06:59:59;;;;;;;10.80;5.33;;;;;;;24.02;41.34;99067.41;5052973;28;20231;-69
2023/10/15 07:02:28;;;;;;;9.93;5.00;;;;;;;24.13;40.48;99069.66;5053304;28;20207;-73
2023/10/15 07:04:56;;;;;;;6.33;5.20;;;;;;;24.41;40.37;99076.00;5053277;28;20269;-70
2023/10/15 07:07:25;;;;;;;8.87;5.47;;;;;;;24.88;39.38;99068.44;5053159;28;20237;-70
2023/10/15 07:09:53;;;;;;;8.10;6.10;;;;;;;25.34;37.89;99073.88;5053171;28;20278;-70
2023/10/15 07:12:20;;;;;;;11.30;4.83;;;;;;;25.68;37.11;99062.56;5051269;28;20760;-70
2023/10/15 07:14:47;;;;;;;7.13;5.40;;;;;;;26.00;36.67;99059.72;5058087;28;20184;-71
2023/10/15 07:17:14;;;;;;;9.93;5.40;;;;;;;26.37;35.59;99059.41;5057981;28;20193;-71
2023/10/15 07:19:41;;;;;;;10.97;5.53;;;;;;;26.63;35.06;99058.50;5062798;28;20196;-69
2023/10/15 07:22:08;;;;;;;7.90;7.10;;;;;;;26.91;35.59;99048.22;5064052;28;20187;-69
2023/10/15 07:24:36;;;;;;;7.00;5.53;;;;;;;27.17;34.51;99047.22;5062819;28;20615;-69
2023/10/15 07:27:04;;;;;;;15.17;5.87;;;;;;;27.45;34.04;99043.19;5062192;28;20196;-69
2023/10/15 07:29:31;;;;;;;10.90;5.03;;;;;;;27.59;32.62;99043.06;5059175;28;20216;-69
2023/10/15 07:31:59;;;;;;;10.10;5.17;;;;;;;27.60;32.57;99040.00;5067686;28;20193;-70
2023/10/15 07:34:26;;;;;;;10.93;5.63;;;;;;;27.57;33.02;99037.13;5067119;28;20189;-70
2023/10/15 07:36:55;;;;;;;8.13;5.17;;;;;;;27.30;33.03;99034.63;5062612;28;20188;-70
2023/10/15 07:39:23;;;;;;;8.37;4.97;;;;;;;27.27;33.09;99029.81;5063978;28;20216;-70
2023/10/15 07:41:51;;;;;;;6.43;5.37;;;;;;;27.21;33.27;99025.63;5062251;28;20660;-70
2023/10/15 07:44:18;;;;;;;9.90;4.93;;;;;;;27.28;33.30;99023.25;5061746;28;20242;-70
2023/10/15 07:46:45;;;;;;;4.83;4.47;;;;;;;27.45;34.00;99015.91;5058933;28;20185;-70
2023/10/15 07:49:14;;;;;;;12.33;5.80;;;;;;;27.51;33.50;99013.81;5062466;28;20261;-69
2023/10/15 07:51:40;;;;;;;8.83;5.53;;;;;;;27.61;33.82;99014.31;5069383;28;20199;-70
2023/10/15 07:54:07;;;;;;;10.03;5.47;;;;;;;27.78;32.99;99013.56;5067509;28;20733;-71
2023/10/15 07:56:34;;;;;;;12.27;4.90;;;;;;;27.93;32.49;99010.41;5063456;28;20191;-72
2023/10/15 07:59:04;;;;;;;7.97;5.53;;;;;;;27.98;32.17;99008.28;5072361;28;20192;-73
2023/10/15 08:01:31;;;;;;;5.70;5.13;;;;;;;27.97;32.22;99005.91;5072628;28;20698;-67
2023/10/15 08:03:59;;;;;;;6.40;4.97;;;;;;;28.04;32.29;99007.00;5073001;28;20200;-68
2023/10/15 08:06:26;;;;;;;7.13;5.07;;;;;;;27.61;32.06;99003.41;5067767;28;20226;-68
2023/10/15 08:08:52;;;;;;;7.73;4.83;;;;;;;27.31;33.02;99000.78;5063021;28;20664;-66
2023/10/15 08:11:19;;;;;;;6.70;5.17;;;;;;;27.30;33.43;98993.69;5058764;28;20771;-67
2023/10/15 08:13:47;;;;;;;13.53;5.13;;;;;;;27.40;33.10;98990.69;5059131;28;20224;-67
2023/10/15 08:16:15;;;;;;;10.07;5.30;;;;;;;27.49;33.06;98989.59;5061907;28;20191;-65
2023/10/15 08:18:42;;;;;;;10.50;5.43;;;;;;;27.30;33.14;98985.53;5058252;28;20204;-66
2023/10/15 08:21:11;;;;;;;8.83;5.50;;;;;;;27.36;33.05;98989.72;5058449;28;20680;-66
2023/10/15 08:23:38;;;;;;;5.73;5.13;;;;;;;27.34;33.21;98986.50;5061949;28;20215;-66
2023/10/15 08:26:05;;;;;;;11.13;5.53;;;;;;;27.52;32.85;98982.69;5062619;28;20695;-67
2023/10/15 08:28:32;;;;;;;7.27;4.80;;;;;;;27.53;32.99;98978.84;5060839;28;21003;-66
2023/10/15 08:31:00;;;;;;;6.30;5.07;;;;;;;27.73;33.16;98968.09;5062053;28;20213;-68
2023/10/15 08:33:28;;;;;;;7.47;5.10;;;;;;;28.06;32.78;98971.97;5061823;28;20280;-69
2023/10/15 08:35:55;;;;;;;8.90;5.00;;;;;;;28.08;32.98;98968.94;5062657;28;20196;-67
2023/10/15 08:38:22;;;;;;;12.10;5.20;;;;;;;28.04;32.70;98962.50;5061258;28;20184;-68
2023/10/15 08:40:53;;;;;;;9.77;5.23;;;;;;;28.18;32.87;98971.34;5059919;28;20238;-67
2023/10/15 08:43:24;;;;;;;11.00;5.17;;;;;;;28.22;32.47;98959.44;5061521;28;20187;-68
2023/10/15 08:45:52;;;;;;;7.23;4.90;;;;;;;28.46;32.97;98958.94;5060978;28;20250;-67
2023/10/15 08:48:20;;;;;;;6.17;5.13;;;;;;;28.51;31.91;98967.75;5060657;28;20189;-67
2023/10/15 08:50:48;;;;;;;7.47;4.23;;;;;;;28.72;32.34;98952.28;5061665;28;20212;-67
2023/10/15 08:53:17;;;;;;;7.47;5.33;;;;;;;28.92;31.98;98951.53;5062223;28;20192;-66
2023/10/15 08:55:45;;;;;;;15.97;6.53;;;;;;;29.14;31.64;98947.75;5057063;28;20639;-67
2023/10/15 08:58:12;;;;;;;15.67;8.77;;;;;;;29.26;32.17;98945.09;5060754;28;20203;-67
2023/10/15 09:00:40;;;;;;;16.80;8.27;;;;;;;29.33;30.88;98952.78;5060182;28;20271;-67
2023/10/15 09:03:06;;;;;;;21.40;9.00;;;;;;;29.31;30.85;98942.19;5061247;28;20310;-67
2023/10/15 09:05:37;;;;;;;12.40;7.07;;;;;;;29.56;31.80;98934.94;5051436;28;20651;-67
2023/10/15 09:08:07;;;;;;;15.37;7.17;;;;;;;29.81;31.15;98934.78;5051748;28;20194;-66
2023/10/15 09:10:37;;;;;;;10.33;6.23;;;;;;;30.03;30.98;98926.19;5051434;28;20295;-66
2023/10/15 09:13:04;;;;;;;11.63;6.03;;;;;;;30.29;29.53;98918.53;5051433;28;20205;-67
2023/10/15 09:15:31;;;;;;;10.33;6.30;;;;;;;30.45;30.32;98908.50;5051771;28;20196;-66
2023/10/15 09:17:59;;;;;;;7.20;5.83;;;;;;;30.55;29.74;98905.34;5052004;28;20192;-66
2023/10/15 09:20:32;;;;;;;15.13;5.13;;;;;;;30.65;29.77;98902.16;5051001;28;20204;-66
2023/10/15 09:23:01;;;;;;;7.37;4.87;;;;;;;30.51;29.56;98904.44;5051896;28;20223;-66
2023/10/15 09:25:30;;;;;;;7.87;4.57;;;;;;;30.39;29.59;98901.66;5051567;28;20258;-67
2023/10/15 09:27:57;;;;;;;6.90;4.43;;;;;;;30.45;29.44;98903.03;5051633;28;20220;-66
2023/10/15 09:30:25;;;;;;;8.60;5.07;;;;;;;30.50;29.37;98888.31;5047790;28;20286;-66
2023/10/15 09:32:52;;;;;;;4.70;4.30;;;;;;;30.26;29.29;98891.81;5030851;28;20270;-66
2023/10/15 09:35:21;;;;;;;6.10;4.53;;;;;;;29.91;30.19;98895.19;5030353;28;20274;-67
2023/10/15 09:37:47;;;;;;;5.33;4.57;;;;;;;29.73;30.44;98880.88;5030531;28;20199;-67
2023/10/15 09:40:19;;;;;;;10.57;5.27;;;;;;;29.73;30.10;98878.13;5043401;28;20668;-67
2023/10/15 09:42:49;;;;;;;10.47;4.47;;;;;;;29.74;30.86;98873.44;5046938;28;20207;-68
2023/10/15 09:45:19;;;;;;;9.33;4.87;;;;;;;29.83;30.49;98866.75;5048039;28;20192;-67
2023/10/15 09:47:52;;;;;;;12.40;5.27;;;;;;;30.00;30.60;98865.81;5059074;28;20196;-67
2023/10/15 09:50:24;;;;;;;7.43;4.50;;;;;;;30.22;30.11;98863.50;5052044;28;20205;-67
2023/10/15 09:52:56;;;;;;;7.30;4.40;;;;;;;30.43;29.50;98858.72;5030700;28;20208;-66
2023/10/15 09:55:26;;;;;;;10.60;5.17;;;;;;;30.34;29.67;98855.25;5033939;28;20580;-67
2023/10/15 09:57:57;;;;;;;9.33;4.47;;;;;;;30.40;29.68;98837.47;5030975;28;20201;-66
2023/10/15 10:00:46;;;;;;;7.40;4.80;;;;;;;30.31;29.37;98847.75;5050307;28;20200;-68
2023/10/15 10:03:37;;;;;;;10.57;4.73;;;;;;;30.32;29.04;98846.59;5053769;28;20184;-68
2023/10/15 10:06:11;;;;;;;6.70;4.90;;;;;;;30.33;29.91;98847.41;5054933;28;20228;-68
2023/10/15 10:08:52;;;;;;;5.33;4.50;;;;;;;30.44;29.52;98837.56;5055086;28;20184;-68
2023/10/15 10:11:38;;;;;;;5.90;4.50;;;;;;;30.59;29.15;98832.25;5054888;28;20239;-68
2023/10/15 10:14:33;;;;;;;6.37;5.17;;;;;;;30.61;29.65;98835.41;5055165;28;20715;-67
2023/10/15 10:17:02;;;;;;;6.90;5.30;;;;;;;30.62;29.16;98828.78;5054733;28;20670;-67
2023/10/15 10:19:29;;;;;;;8.17;5.60;;;;;;;30.66;29.37;98826.19;5054703;28;20220;-69
2023/10/15 10:21:56;;;;;;;10.53;5.33;;;;;;;30.43;28.93;98814.06;5054510;28;20193;-68
2023/10/15 10:24:24;;;;;;;7.07;4.80;;;;;;;30.42;29.55;98813.25;5054129;28;20723;-69
2023/10/15 10:26:55;;;;;;;5.87;5.20;;;;;;;30.49;29.06;98801.72;5054729;28;20242;-68
2023/10/15 10:29:26;;;;;;;11.20;5.33;;;;;;;30.40;29.09;98788.13;5054333;28;20288;-69
2023/10/15 10:31:55;;;;;;;5.80;5.03;;;;;;;30.49;29.46;98786.06;5056562;28;20737;-68
2023/10/15 10:34:29;;;;;;;6.63;4.97;;;;;;;30.33;29.57;98774.19;5063394;28;20188;-70
2023/10/15 10:36:55;;;;;;;8.43;4.20;;;;;;;30.24;29.51;98789.94;5072783;28;20670;-70
2023/10/15 10:39:25;;;;;;;8.47;4.93;;;;;;;30.26;29.37;98771.22;5062979;28;20284;-69
2023/10/15 10:41:54;;;;;;;6.07;4.70;;;;;;;30.37;29.50;98772.34;5062347;28;20251;-69
2023/10/15 10:44:40;;;;;;;10.97;5.10;;;;;;;30.39;28.51;98772.81;5060856;28;20192;-69
2023/10/15 10:47:19;;;;;;;6.53;4.67;;;;;;;30.42;29.17;98766.63;5061292;28;20223;-69
2023/10/15 10:49:55;;;;;;;8.00;5.33;;;;;;;30.51;28.62;98764.59;5062462;28;20220;-67
2023/10/15 10:52:29;;;;;;;9.23;5.17;;;;;;;30.51;29.19;98766.53;5060360;28;20764;-69
2023/10/15 10:54:58;;;;;;;5.60;5.10;;;;;;;30.61;28.94;98766.88;5062875;28;20181;-70
2023/10/15 10:57:31;;;;;;;9.83;5.00;;;;;;;30.72;28.83;98762.56;5063553;28;20746;-69
2023/10/15 11:00:01;;;;;;;11.83;6.93;;;;;;;30.55;28.49;98757.28;5060626;28;20185;-71
2023/10/15 11:02:28;;;;;;;7.87;4.67;;;;;;;30.42;28.47;98750.19;5055037;28;20279;-69
2023/10/15 11:04:55;;;;;;;6.00;5.17;;;;;;;30.37;28.95;98752.38;5061573;28;20188;-69
2023/10/15 11:07:22;;;;;;;6.00;4.43;;;;;;;30.16;28.90;98746.19;5062064;28;20590;-69
2023/10/15 11:09:49;;;;;;;13.33;5.17;;;;;;;30.09;29.30;98733.03;5053759;28;20196;-69
2023/10/15 11:12:18;;;;;;;8.97;5.50;;;;;;;30.04;29.55;98730.53;5052856;28;20278;-69
2023/10/15 11:14:44;;;;;;;7.93;4.33;;;;;;;30.14;29.84;98726.56;5072091;28;20250;-69
2023/10/15 11:17:12;;;;;;;10.97;5.63;;;;;;;30.23;29.48;98722.59;5073688;28;20188;-68
2023/10/15 11:19:39;;;;;;;7.13;5.03;;;;;;;30.33;28.89;98715.84;5062613;28;20192;-68
2023/10/15 11:22:06;;;;;;;6.80;6.10;;;;;;;30.31;29.01;98716.19;5064111;28;20690;-68
2023/10/15 11:24:33;;;;;;;11.50;7.43;;;;;;;30.22;29.04;98715.50;5065248;28;20667;-67
2023/10/15 11:27:00;;;;;;;11.70;5.85;;;;;;;30.00;29.13;98713.19;5073371;28;20486;-68
2023/10/15 11:29:27;;;;;;;6.53;5.30;;;;;;;30.03;29.54;98706.22;5073584;28;20683;-68
2023/10/15 11:31:56;;;;;;;15.47;5.50;;;;;;;30.13;28.94;98712.03;5073353;28;20715;-69
2023/10/15 11:34:27;;;;;;;8.57;5.13;;;;;;;30.00;29.43;98698.69;5073693;28;20275;-68
2023/10/15 11:36:56;;;;;;;6.20;5.40;;;;;;;30.13;29.20;98703.81;5073083;28;20183;-68
2023/10/15 11:39:29;;;;;;;8.73;5.40;;;;;;;30.15;29.13;98698.84;5072544;28;20187;-68
2023/10/15 11:41:57;;;;;;;9.93;5.77;;;;;;;30.18;29.63;98703.63;5072697;28;20192;-68